Time;durP1;ratioP1;P1;durP2;ratioP2;P2;SDS_P1;SDS_P2;PMS_P1;PMS_P2;Temp;Humidity;BMP_temperature;BMP_pressure;BME280_temperature;BME280_humidity;BME280_pressure;Samples;Min_cycle;Max_cycle;Signal;HPM_P1;HPM_P2
2023/11/02 00:00:34;;;;;;;1.40;1.10;;;11.80;99.90;;;;;;4981311;28;20018;-51
2023/11/02 00:03:09;;;;;;;3.05;1.10;;;11.70;99.90;;;;;;4993563;28;20448;-52
2023/11/02 00:05:53;;;;;;;3.13;0.90;;;11.70;99.90;;;;;;4985766;28;20039;-51
2023/11/02 00:08:19;;;;;;;1.45;1.30;;;11.60;99.90;;;;;;4962124;28;20035;-52
2023/11/02 00:10:45;;;;;;;1.17;1.00;;;11.60;99.90;;;;;;4961691;28;20031;-49
2023/11/02 00:13:26;;;;;;;4.25;1.08;;;11.60;99.90;;;;;;4979035;28;20027;-50
2023/11/02 00:15:53;;;;;;;1.58;1.25;;;11.60;99.90;;;;;;4978895;28;20023;-51
2023/11/02 00:18:19;;;;;;;2.47;0.95;;;11.60;99.90;;;;;;4979250;28;20054;-51
2023/11/02 00:20:47;;;;;;;9.40;4.65;;;12.40;99.90;;;;;;4979747;28;20023;-49
2023/11/02 00:23:20;;;;;;;5.10;3.72;;;11.50;99.90;;;;;;4979028;28;20080;-53
2023/11/02 00:25:57;;;;;;;2.97;1.17;;;11.40;99.90;;;;;;4979141;28;20039;-51
2023/11/02 00:28:23;;;;;;;2.53;0.82;;;11.30;99.90;;;;;;4980346;28;20023;-51
2023/11/02 00:30:50;;;;;;;1.00;0.90;;;11.30;99.90;;;;;;4979394;28;20023;-52
2023/11/02 00:33:19;;;;;;;2.45;0.98;;;11.30;99.90;;;;;;4980305;28;20089;-48
2023/11/02 00:35:46;;;;;;;1.63;1.00;;;11.40;99.90;;;;;;4977691;28;20022;-48
2023/11/02 00:38:20;;;;;;;4.05;0.90;;;11.40;99.90;;;;;;4980724;28;20067;-48
2023/11/02 00:40:46;;;;;;;1.85;1.00;;;11.50;99.90;;;;;;4961613;28;20061;-54
2023/11/02 00:43:12;;;;;;;1.45;0.90;;;11.50;99.90;;;;;;4992778;28;20030;-51
2023/11/02 00:45:43;;;;;;;2.10;1.30;;;11.60;99.90;;;;;;4978406;28;20034;-51
2023/11/02 00:48:16;;;;;;;1.88;1.00;;;11.60;99.90;;;;;;4979102;28;20023;-52
2023/11/02 00:50:47;;;;;;;3.45;0.95;;;11.60;99.90;;;;;;4992193;28;20046;-52
2023/11/02 00:53:13;;;;;;;1.63;0.80;;;11.60;99.90;;;;;;4998489;28;20030;-47
2023/11/02 00:55:38;;;;;;;1.05;0.63;;;11.60;99.90;;;;;;4983431;28;20545;-51
2023/11/02 00:58:09;;;;;;;1.83;0.93;;;11.70;99.90;;;;;;4979929;28;20069;-48
2023/11/02 01:00:59;;;;;;;0.65;0.63;;;11.70;99.90;;;;;;4980398;28;20026;-50
2023/11/02 01:03:26;;;;;;;2.88;0.93;;;11.80;99.90;;;;;;4961456;28;20040;-48
2023/11/02 01:05:51;;;;;;;3.10;0.80;;;11.90;99.90;;;;;;4979964;28;20039;-52
2023/11/02 01:08:31;;;;;;;0.90;0.65;;;11.90;99.90;;;;;;4979957;28;20062;-46
2023/11/02 01:10:57;;;;;;;0.90;0.90;;;11.80;99.90;;;;;;4979270;28;20030;-47
2023/11/02 01:13:23;;;;;;;2.30;0.93;;;11.80;99.90;;;;;;4978598;28;20046;-49
2023/11/02 01:16:10;;;;;;;2.97;1.15;;;11.80;99.90;;;;;;4979858;28;20019;-51
2023/11/02 01:18:39;;;;;;;2.30;0.70;;;11.80;99.90;;;;;;4979822;28;20038;-47
2023/11/02 01:21:06;;;;;;;2.47;0.75;;;11.80;99.90;;;;;;4972567;28;20055;-48
2023/11/02 01:23:33;;;;;;;5.63;0.90;;;11.70;99.90;;;;;;4998472;28;20030;-47
2023/11/02 01:26:06;;;;;;;0.90;0.80;;;11.60;99.90;;;;;;4998686;28;20030;-47
2023/11/02 01:28:51;;;;;;;4.22;1.00;;;11.60;99.90;;;;;;4996769;28;20485;-47
2023/11/02 01:31:19;;;;;;;2.33;0.88;;;11.90;99.90;;;;;;4995052;28;20132;-51
2023/11/02 01:33:58;;;;;;;2.33;0.80;;;11.60;99.90;;;;;;4981213;28;20099;-51
2023/11/02 01:36:29;;;;;;;3.80;0.75;;;11.60;99.90;;;;;;4998006;28;20031;-50
2023/11/02 01:39:13;;;;;;;1.75;1.17;;;11.50;99.90;;;;;;4997427;28;20034;-55
2023/11/02 01:41:49;;;;;;;3.03;0.95;;;11.50;99.90;;;;;;4996005;28;20117;-55
2023/11/02 01:44:40;;;;;;;1.70;0.80;;;11.40;99.90;;;;;;4994934;28;20034;-49
2023/11/02 01:47:32;;;;;;;3.30;0.63;;;11.50;99.90;;;;;;4978985;28;20039;-52
2023/11/02 01:50:01;;;;;;;2.05;1.42;;;11.50;99.90;;;;;;4986089;28;20050;-52
2023/11/02 01:52:47;;;;;;;6.63;0.77;;;11.50;99.90;;;;;;4964598;28;20031;-49
2023/11/02 01:55:19;;;;;;;;;;;11.50;99.90;;;;;;4965436;28;20027;-47
2023/11/02 01:58:00;;;;;;;1.90;1.55;;;11.50;99.90;;;;;;4982364;28;19906;-47
2023/11/02 02:00:59;;;;;;;3.17;0.65;;;11.50;99.90;;;;;;4987431;28;20046;-53
2023/11/02 02:03:49;;;;;;;2.78;0.77;;;11.50;99.90;;;;;;5001583;28;20022;-49
2023/11/02 02:06:23;;;;;;;3.03;0.85;;;11.50;99.90;;;;;;5001656;28;20105;-48
2023/11/02 02:09:07;;;;;;;2.67;1.00;;;11.50;99.90;;;;;;5001484;28;20026;-51
2023/11/02 02:11:52;;;;;;;4.28;1.00;;;11.50;99.90;;;;;;5000752;28;20455;-51
2023/11/02 02:14:52;;;;;;;1.73;0.80;;;11.50;99.90;;;;;;5001242;28;20492;-50
2023/11/02 02:17:22;;;;;;;0.80;0.70;;;11.60;99.90;;;;;;5018253;28;20053;-49
2023/11/02 02:20:16;;;;;;;1.83;1.02;;;11.60;99.90;;;;;;4980913;28;20027;-50
2023/11/02 02:22:47;;;;;;;4.38;2.00;;;11.60;99.90;;;;;;4965590;28;20034;-49
2023/11/02 02:25:22;;;;;;;3.53;0.80;;;11.60;99.90;;;;;;4982426;28;20321;-50
2023/11/02 02:28:13;;;;;;;4.13;1.17;;;11.70;99.90;;;;;;4982705;28;20029;-48
2023/11/02 02:31:02;;;;;;;2.05;0.60;;;11.70;99.90;;;;;;4982874;28;20023;-47
2023/11/02 02:34:05;;;;;;;7.68;1.70;;;11.70;99.90;;;;;;4984071;28;20046;-49
2023/11/02 02:37:01;;;;;;;3.58;1.70;;;11.70;99.90;;;;;;5001335;28;20110;-49
2023/11/02 02:39:32;;;;;;;1.55;0.60;;;11.70;99.90;;;;;;5003614;28;20022;-49
2023/11/02 02:42:03;;;;;;;1.55;1.45;;;11.70;99.90;;;;;;5003639;28;20109;-51
2023/11/02 02:44:31;;;;;;;1.90;0.75;;;11.70;99.90;;;;;;5000572;28;20026;-51
2023/11/02 02:47:00;;;;;;;2.00;0.68;;;11.70;99.90;;;;;;4983927;28;20049;-49
2023/11/02 02:49:34;;;;;;;2.67;1.27;;;11.80;99.90;;;;;;4983673;28;20027;-52
2023/11/02 02:52:04;;;;;;;2.25;0.85;;;11.80;99.90;;;;;;4983565;28;20042;-53
2023/11/02 02:54:31;;;;;;;3.30;0.60;;;11.80;99.90;;;;;;4984912;28;20033;-51
2023/11/02 02:57:01;;;;;;;1.30;0.65;;;11.90;99.90;;;;;;4984124;28;20097;-52
2023/11/02 02:59:28;;;;;;;4.75;0.90;;;11.80;99.90;;;;;;4983229;28;20031;-48
2023/11/02 03:01:56;;;;;;;1.95;0.80;;;11.90;99.90;;;;;;4996545;28;20019;-52
2023/11/02 03:04:24;;;;;;;2.17;0.80;;;11.90;99.90;;;;;;4964198;28;20479;-52
2023/11/02 03:06:53;;;;;;;4.85;0.90;;;11.90;99.90;;;;;;4982950;28;20437;-47
2023/11/02 03:09:25;;;;;;;1.92;0.75;;;11.90;99.90;;;;;;4982406;28;20030;-48
2023/11/02 03:11:57;;;;;;;2.45;0.80;;;12.00;99.90;;;;;;4982356;28;20030;-54
2023/11/02 03:14:25;;;;;;;3.63;0.93;;;12.00;99.90;;;;;;4981665;28;20030;-53
2023/11/02 03:16:52;;;;;;;0.80;0.80;;;12.00;99.90;;;;;;4981921;28;20091;-49
2023/11/02 03:19:50;;;;;;;7.65;0.65;;;12.00;99.90;;;;;;4962530;28;20031;-49
2023/11/02 03:22:21;;;;;;;6.80;1.00;;;12.00;99.90;;;;;;4945653;29;20027;-51
2023/11/02 03:25:24;;;;;;;2.30;0.65;;;11.90;99.90;;;;;;4979944;28;20083;-49
2023/11/02 03:28:03;;;;;;;1.48;0.57;;;12.00;99.90;;;;;;5013030;28;20066;-50
2023/11/02 03:30:37;;;;;;;4.75;1.00;;;11.90;99.90;;;;;;4983639;28;20023;-50
2023/11/02 03:33:29;;;;;;;1.25;0.77;;;11.90;99.90;;;;;;4984120;28;20098;-50
2023/11/02 03:36:05;;;;;;;4.20;0.90;;;11.80;99.90;;;;;;5001716;28;20034;-46
2023/11/02 03:38:45;;;;;;;2.05;1.10;;;11.80;99.90;;;;;;5000740;28;20023;-46
2023/11/02 03:41:17;;;;;;;3.80;0.70;;;11.80;99.90;;;;;;5000347;28;20022;-47
2023/11/02 03:44:07;;;;;;;1.20;0.90;;;11.90;99.90;;;;;;4994459;28;20109;-44
2023/11/02 03:47:05;;;;;;;1.23;0.70;;;11.80;99.90;;;;;;4999617;28;20022;-47
2023/11/02 03:49:41;;;;;;;1.40;0.70;;;11.80;99.90;;;;;;5007554;28;20044;-46
2023/11/02 03:52:26;;;;;;;2.63;0.80;;;11.80;99.90;;;;;;4999319;28;20045;-49
2023/11/02 03:55:00;;;;;;;3.15;0.65;;;11.80;99.90;;;;;;4999410;28;20019;-46
2023/11/02 03:57:31;;;;;;;2.85;0.80;;;11.80;99.90;;;;;;4999737;28;20041;-51
2023/11/02 04:00:20;;;;;;;1.13;0.50;;;11.80;99.90;;;;;;4981590;28;20053;-49
2023/11/02 04:02:49;;;;;;;3.22;1.15;;;11.80;99.90;;;;;;4984698;28;20029;-48
2023/11/02 04:05:22;;;;;;;0.90;0.60;;;11.80;99.90;;;;;;4998897;28;20034;-48
2023/11/02 04:08:01;;;;;;;1.35;0.73;;;11.80;99.90;;;;;;4978773;28;20042;-47
2023/11/02 04:10:29;;;;;;;1.83;0.98;;;11.80;99.90;;;;;;4993680;28;20508;-52
2023/11/02 04:13:07;;;;;;;2.95;0.93;;;11.80;99.90;;;;;;4994915;28;20027;-51
2023/11/02 04:15:32;;;;;;;2.42;0.63;;;11.80;99.90;;;;;;4994044;28;20041;-51
2023/11/02 04:17:59;;;;;;;4.45;0.70;;;11.80;99.90;;;;;;4999537;28;20022;-52
2023/11/02 04:20:26;;;;;;;1.73;0.80;;;11.80;99.90;;;;;;4997262;28;20504;-48
2023/11/02 04:22:52;;;;;;;1.17;0.75;;;11.80;99.90;;;;;;4979411;28;20059;-54
2023/11/02 04:25:18;;;;;;;2.83;1.58;;;11.90;99.90;;;;;;4979735;28;20027;-54
2023/11/02 04:27:43;;;;;;;2.20;0.80;;;11.90;99.90;;;;;;4978442;28;20085;-50
2023/11/02 04:30:09;;;;;;;2.63;0.80;;;11.90;99.90;;;;;;4977606;28;20031;-47
2023/11/02 04:32:35;;;;;;;1.23;0.57;;;12.00;99.90;;;;;;4982988;28;20030;-49
2023/11/02 04:35:01;;;;;;;2.55;0.80;;;11.90;99.90;;;;;;4998437;28;20026;-52
2023/11/02 04:37:26;;;;;;;2.58;0.93;;;11.90;99.90;;;;;;4981567;28;20026;-52
2023/11/02 04:39:52;;;;;;;3.30;1.02;;;11.90;99.90;;;;;;4998944;28;20050;-49
2023/11/02 04:42:17;;;;;;;6.03;0.80;;;11.90;99.90;;;;;;4998550;28;20109;-50
2023/11/02 04:44:43;;;;;;;2.40;0.70;;;11.90;99.90;;;;;;4999328;28;20038;-50
2023/11/02 04:47:09;;;;;;;1.05;0.80;;;11.90;99.90;;;;;;4999021;28;20564;-48
2023/11/02 04:49:35;;;;;;;4.13;1.02;;;12.00;99.90;;;;;;4998775;28;20041;-48
2023/11/02 04:52:05;;;;;;;2.47;0.77;;;12.00;99.90;;;;;;4997443;28;20034;-47
2023/11/02 04:54:31;;;;;;;1.77;0.70;;;11.90;99.90;;;;;;4964462;28;20027;-54
2023/11/02 04:56:57;;;;;;;2.40;0.77;;;12.00;99.90;;;;;;4978956;28;20072;-51
2023/11/02 04:59:23;;;;;;;3.25;0.75;;;11.90;99.90;;;;;;4980367;28;20023;-50
2023/11/02 05:01:49;;;;;;;1.42;0.50;;;12.00;99.90;;;;;;4981185;28;20543;-53
2023/11/02 05:04:15;;;;;;;2.20;0.57;;;12.10;99.90;;;;;;4976932;28;20041;-51
2023/11/02 05:06:41;;;;;;;1.02;0.75;;;12.10;99.90;;;;;;4962012;28;20027;-50
2023/11/02 05:09:06;;;;;;;0.93;0.55;;;12.10;99.90;;;;;;4979265;28;20031;-48
2023/11/02 05:11:32;;;;;;;2.15;0.70;;;12.00;99.90;;;;;;4978886;28;20094;-50
2023/11/02 05:13:58;;;;;;;2.42;0.80;;;12.00;99.90;;;;;;4979300;28;20478;-52
2023/11/02 05:16:23;;;;;;;2.30;0.88;;;11.90;99.90;;;;;;4961401;28;20027;-52
2023/11/02 05:18:49;;;;;;;2.03;1.35;;;11.90;99.90;;;;;;4978788;28;20106;-48
2023/11/02 05:21:15;;;;;;;4.47;1.33;;;11.90;99.90;;;;;;4979328;28;20110;-48
2023/11/02 05:23:41;;;;;;;2.25;0.82;;;11.80;99.90;;;;;;4979203;28;20062;-48
2023/11/02 05:26:06;;;;;;;4.97;0.63;;;11.70;99.90;;;;;;4978122;28;20102;-50
2023/11/02 05:28:32;;;;;;;1.20;1.08;;;11.60;99.90;;;;;;4961763;28;20030;-56
2023/11/02 05:30:58;;;;;;;2.22;0.93;;;11.60;99.90;;;;;;4979310;28;20061;-55
2023/11/02 05:33:23;;;;;;;3.58;0.90;;;11.50;99.90;;;;;;4994164;28;20035;-50
2023/11/02 05:35:52;;;;;;;4.30;0.90;;;11.50;99.90;;;;;;5015046;22;20068;-48
2023/11/02 05:38:21;;;;;;;0.85;0.80;;;11.50;99.90;;;;;;4996635;28;20027;-52
2023/11/02 05:40:47;;;;;;;3.65;0.93;;;11.50;99.90;;;;;;5004741;28;20052;-48
2023/11/02 05:43:13;;;;;;;3.15;0.90;;;11.40;99.90;;;;;;5007633;28;20038;-49
2023/11/02 05:45:39;;;;;;;1.45;0.57;;;11.40;99.90;;;;;;4996040;28;20570;-50
2023/11/02 05:48:04;;;;;;;1.13;0.82;;;11.30;99.90;;;;;;4989660;28;20106;-53
2023/11/02 05:50:30;;;;;;;2.45;0.52;;;11.20;99.90;;;;;;4989558;28;20101;-54
2023/11/02 05:52:56;;;;;;;1.73;1.52;;;11.20;99.90;;;;;;4989807;28;20425;-50
2023/11/02 05:55:21;;;;;;;2.92;0.90;;;11.10;99.90;;;;;;4988936;28;20049;-51
2023/11/02 05:57:47;;;;;;;0.75;0.70;;;11.10;99.90;;;;;;4989533;28;20030;-53
2023/11/02 06:00:14;;;;;;;2.55;0.90;;;11.10;99.90;;;;;;4989493;28;20034;-50
2023/11/02 06:02:40;;;;;;;2.05;0.70;;;11.10;99.90;;;;;;4989690;28;20034;-51
2023/11/02 06:05:06;;;;;;;1.83;0.98;;;11.10;99.90;;;;;;4989431;28;20030;-51
2023/11/02 06:07:32;;;;;;;3.20;1.20;;;11.10;99.90;;;;;;4991375;28;20105;-50
2023/11/02 06:09:58;;;;;;;0.50;0.50;;;11.10;99.90;;;;;;4989032;28;20409;-49
2023/11/02 06:12:25;;;;;;;3.78;0.80;;;11.00;99.90;;;;;;4990585;28;20026;-51
2023/11/02 06:14:51;;;;;;;2.67;1.02;;;11.00;99.90;;;;;;4989638;28;20459;-51
2023/11/02 06:17:16;;;;;;;1.77;1.10;;;10.90;99.90;;;;;;4989066;28;20076;-50
2023/11/02 06:19:42;;;;;;;1.50;1.02;;;10.90;99.90;;;;;;4989088;28;20019;-49
2023/11/02 06:22:08;;;;;;;2.55;0.75;;;10.90;99.90;;;;;;4989370;28;20019;-51
2023/11/02 06:24:33;;;;;;;1.42;0.65;;;10.90;99.90;;;;;;4988813;28;20134;-54
2023/11/02 06:26:59;;;;;;;3.80;0.80;;;10.80;99.90;;;;;;4989129;28;20027;-52
2023/11/02 06:29:24;;;;;;;3.67;0.82;;;10.80;99.90;;;;;;4988847;28;20037;-52
2023/11/02 06:31:50;;;;;;;4.88;1.27;;;10.80;99.90;;;;;;4987729;28;20476;-54
2023/11/02 06:34:17;;;;;;;5.25;2.03;;;10.70;99.90;;;;;;4988238;28;20497;-53
2023/11/02 06:36:42;;;;;;;4.32;1.27;;;10.70;99.90;;;;;;4988895;28;20046;-52
2023/11/02 06:39:08;;;;;;;2.63;1.25;;;10.70;99.90;;;;;;4991202;28;20036;-53
2023/11/02 06:41:34;;;;;;;2.72;1.40;;;10.70;99.90;;;;;;5014249;28;20060;-50
2023/11/02 06:43:59;;;;;;;2.33;1.00;;;10.70;99.90;;;;;;4991857;28;20093;-50
2023/11/02 06:46:25;;;;;;;4.63;1.02;;;10.70;99.90;;;;;;4991763;28;20037;-53
2023/11/02 06:48:50;;;;;;;1.98;0.80;;;10.70;99.90;;;;;;4991765;28;20041;-56
2023/11/02 06:51:16;;;;;;;0.90;0.90;;;10.60;99.90;;;;;;4989837;28;20030;-50
2023/11/02 06:53:41;;;;;;;2.92;0.98;;;10.70;99.90;;;;;;4990814;28;20083;-49
2023/11/02 06:56:08;;;;;;;0.88;0.80;;;10.70;99.90;;;;;;4991469;28;20528;-48
2023/11/02 06:58:33;;;;;;;0.73;0.70;;;10.70;99.90;;;;;;4991485;28;20018;-53
2023/11/02 07:01:00;;;;;;;2.78;1.00;;;10.70;99.90;;;;;;4991221;28;20085;-48
2023/11/02 07:03:27;;;;;;;0.85;0.85;;;10.60;99.90;;;;;;4989366;28;20054;-50
2023/11/02 07:05:52;;;;;;;2.45;1.00;;;10.70;99.90;;;;;;4991332;28;20027;-52
2023/11/02 07:08:18;;;;;;;4.30;0.80;;;10.70;99.90;;;;;;4991533;28;20083;-47
2023/11/02 07:10:44;;;;;;;3.40;1.23;;;10.80;99.90;;;;;;4990963;28;20041;-48
2023/11/02 07:13:11;;;;;;;3.92;0.90;;;10.70;99.90;;;;;;4991097;28;20026;-51
2023/11/02 07:15:39;;;;;;;1.02;0.93;;;10.70;99.90;;;;;;4991309;28;20048;-47
2023/11/02 07:18:05;;;;;;;7.05;1.15;;;10.70;99.90;;;;;;4991692;28;20019;-47
2023/11/02 07:20:30;;;;;;;1.42;1.13;;;10.70;99.90;;;;;;4991853;28;20019;-46
2023/11/02 07:22:58;;;;;;;1.90;1.05;;;10.70;99.90;;;;;;4992002;28;20030;-46
2023/11/02 07:25:23;;;;;;;5.13;0.95;;;10.70;99.90;;;;;;4991438;28;20086;-45
2023/11/02 07:27:49;;;;;;;3.50;1.17;;;10.70;99.90;;;;;;4991581;28;20458;-48
2023/11/02 07:30:14;;;;;;;0.63;0.63;;;10.80;99.90;;;;;;4991503;28;20080;-46
2023/11/02 07:32:41;;;;;;;0.93;0.80;;;10.80;99.90;;;;;;4991325;28;20083;-47
2023/11/02 07:35:07;;;;;;;1.27;1.17;;;10.80;99.90;;;;;;4991277;28;20034;-45
2023/11/02 07:37:33;;;;;;;1.55;0.93;;;10.90;99.90;;;;;;4991314;28;20023;-46
2023/11/02 07:39:58;;;;;;;0.70;0.70;;;10.90;99.90;;;;;;4989935;28;20068;-47
2023/11/02 07:42:24;;;;;;;1.20;0.80;;;10.90;99.90;;;;;;4990464;28;20113;-48
2023/11/02 07:44:49;;;;;;;0.68;0.68;;;11.00;99.90;;;;;;4991727;28;20035;-47
2023/11/02 07:47:15;;;;;;;0.90;0.65;;;11.00;99.90;;;;;;4990030;28;20038;-48
2023/11/02 07:49:40;;;;;;;1.38;0.63;;;11.00;99.90;;;;;;4991383;28;20026;-52
2023/11/02 07:52:07;;;;;;;0.93;0.70;;;11.10;99.90;;;;;;4991189;28;20042;-48
2023/11/02 07:54:36;;;;;;;1.17;0.80;;;11.10;99.90;;;;;;4991480;28;20076;-48
2023/11/02 07:57:07;;;;;;;5.35;0.90;;;11.20;99.90;;;;;;4991199;28;20374;-48
2023/11/02 07:59:33;;;;;;;0.98;0.57;;;11.20;99.90;;;;;;4990874;28;20018;-46
2023/11/02 08:01:59;;;;;;;0.73;0.70;;;11.20;99.90;;;;;;4991147;28;20033;-46
2023/11/02 08:04:25;;;;;;;1.85;0.95;;;11.20;99.90;;;;;;4990888;28;20030;-47
2023/11/02 08:06:50;;;;;;;0.70;0.70;;;11.30;99.90;;;;;;4990974;28;20030;-47
2023/11/02 08:09:16;;;;;;;0.70;0.70;;;11.30;99.90;;;;;;4990819;28;20083;-47
2023/11/02 08:11:41;;;;;;;0.75;0.75;;;11.30;99.90;;;;;;4991096;28;20071;-49
2023/11/02 08:14:07;;;;;;;3.10;0.65;;;11.40;99.90;;;;;;4990871;28;20161;-50
2023/11/02 08:16:34;;;;;;;0.70;0.70;;;11.40;99.90;;;;;;4990818;28;20094;-50
2023/11/02 08:19:00;;;;;;;0.60;0.60;;;11.50;99.90;;;;;;4990404;28;20394;-47
2023/11/02 08:21:25;;;;;;;0.73;0.50;;;11.50;99.90;;;;;;4990866;28;20034;-48
2023/11/02 08:23:51;;;;;;;0.75;0.55;;;11.50;99.90;;;;;;4990954;28;20030;-46
2023/11/02 08:26:17;;;;;;;1.02;0.90;;;11.50;99.90;;;;;;4989925;28;20117;-46
2023/11/02 08:28:42;;;;;;;2.58;0.88;;;11.60;99.90;;;;;;4991098;28;20060;-48
2023/11/02 08:31:08;;;;;;;1.80;0.73;;;11.60;99.90;;;;;;4989396;28;20499;-48
2023/11/02 08:33:33;;;;;;;1.35;0.70;;;11.60;99.90;;;;;;4990440;28;20061;-50
2023/11/02 08:35:59;;;;;;;1.58;0.95;;;11.60;99.90;;;;;;4990107;28;20034;-46
2023/11/02 08:38:24;;;;;;;0.70;0.70;;;11.60;99.90;;;;;;4989808;28;20106;-53
2023/11/02 08:40:50;;;;;;;0.60;0.60;;;11.70;99.90;;;;;;4989798;28;20044;-47
2023/11/02 08:43:16;;;;;;;2.10;0.73;;;11.80;99.90;;;;;;4989030;28;20080;-49
2023/11/02 08:45:41;;;;;;;0.88;0.60;;;11.80;99.90;;;;;;4989781;28;20038;-48
2023/11/02 08:48:07;;;;;;;0.80;0.80;;;11.90;99.90;;;;;;4989840;28;20521;-49
2023/11/02 08:50:32;;;;;;;0.70;0.70;;;12.00;99.90;;;;;;4989160;28;20492;-48
2023/11/02 08:52:58;;;;;;;1.15;0.80;;;12.00;99.90;;;;;;4989095;28;20026;-53
2023/11/02 08:55:23;;;;;;;3.50;0.80;;;12.10;99.90;;;;;;4987769;28;20034;-48
2023/11/02 08:57:49;;;;;;;0.98;0.85;;;12.10;99.90;;;;;;4989814;28;20056;-47
2023/11/02 09:00:16;;;;;;;1.13;0.70;;;12.10;99.90;;;;;;4988465;28;20023;-49
2023/11/02 09:02:41;;;;;;;3.13;0.63;;;12.10;99.90;;;;;;4990133;28;20495;-49
2023/11/02 09:05:07;;;;;;;0.80;0.68;;;12.20;99.90;;;;;;4989857;28;20089;-46
2023/11/02 09:07:33;;;;;;;0.70;0.70;;;12.20;99.90;;;;;;4990566;28;20029;-47
2023/11/02 09:09:58;;;;;;;0.80;0.80;;;12.20;99.90;;;;;;4988959;28;20033;-49
2023/11/02 09:12:24;;;;;;;0.65;0.65;;;12.30;99.90;;;;;;4990136;28;20119;-47
2023/11/02 09:14:49;;;;;;;0.60;0.60;;;12.40;99.90;;;;;;4988360;28;20035;-47
2023/11/02 09:17:15;;;;;;;0.80;0.80;;;12.30;99.90;;;;;;5014695;28;20547;-49
2023/11/02 09:19:43;;;;;;;0.60;0.60;;;12.40;99.90;;;;;;4988563;28;20022;-49
2023/11/02 09:22:10;;;;;;;0.75;0.75;;;12.40;99.90;;;;;;4974295;28;20018;-48
2023/11/02 09:24:36;;;;;;;0.57;0.57;;;12.40;99.90;;;;;;4989817;28;20038;-50
2023/11/02 09:27:02;;;;;;;0.85;0.80;;;12.40;99.90;;;;;;4989379;28;20561;-49
2023/11/02 09:29:28;;;;;;;0.55;0.55;;;12.40;99.90;;;;;;4989308;28;20014;-49
2023/11/02 09:31:53;;;;;;;2.42;1.08;;;12.40;99.90;;;;;;4984927;28;20434;-49
2023/11/02 09:34:19;;;;;;;1.05;0.93;;;12.50;99.90;;;;;;4986443;28;20375;-47
2023/11/02 09:36:44;;;;;;;0.95;0.63;;;12.50;99.90;;;;;;4989886;28;20035;-47
2023/11/02 09:39:10;;;;;;;2.80;0.80;;;12.50;99.90;;;;;;4980312;28;20109;-45
2023/11/02 09:41:36;;;;;;;1.65;0.90;;;12.50;99.90;;;;;;4970674;28;20023;-51
2023/11/02 09:44:05;;;;;;;0.70;0.70;;;12.60;99.90;;;;;;4968928;28;20027;-47
2023/11/02 09:46:31;;;;;;;1.20;0.60;;;12.60;99.90;;;;;;4983146;28;20022;-46
2023/11/02 09:48:56;;;;;;;3.65;0.80;;;12.60;99.90;;;;;;4989520;28;20516;-47
2023/11/02 09:51:23;;;;;;;2.78;0.90;;;12.60;99.90;;;;;;4990038;28;20027;-47
2023/11/02 09:53:49;;;;;;;0.60;0.60;;;12.60;99.90;;;;;;4988587;28;20052;-47
2023/11/02 09:56:16;;;;;;;0.88;0.85;;;12.50;99.90;;;;;;4988526;28;20397;-51
2023/11/02 09:58:43;;;;;;;0.60;0.60;;;12.60;99.90;;;;;;4989607;28;20478;-48
2023/11/02 10:01:11;;;;;;;0.75;0.68;;;12.60;99.90;;;;;;4988977;28;20477;-46
2023/11/02 10:03:37;;;;;;;0.63;0.60;;;12.60;99.90;;;;;;4988413;28;20519;-47
2023/11/02 10:06:03;;;;;;;0.57;0.57;;;12.60;99.90;;;;;;4989296;28;20030;-47
2023/11/02 10:08:28;;;;;;;3.25;0.85;;;12.60;99.90;;;;;;4988100;28;20022;-51
2023/11/02 10:11:14;;;;;;;0.88;0.70;;;12.60;99.90;;;;;;4989455;28;20034;-50
2023/11/02 10:13:42;;;;;;;0.88;0.68;;;12.70;99.90;;;;;;4980154;28;20031;-49
2023/11/02 10:16:08;;;;;;;0.70;0.60;;;12.70;99.90;;;;;;4991627;28;20039;-50
2023/11/02 10:18:33;;;;;;;0.50;0.50;;;12.70;99.90;;;;;;4992467;28;20028;-47
2023/11/02 10:21:04;;;;;;;1.42;0.90;;;12.70;99.90;;;;;;4992503;28;20546;-47
2023/11/02 10:23:54;;;;;;;6.18;2.42;;;12.80;99.90;;;;;;4992552;28;20393;-50
2023/11/02 10:26:19;;;;;;;2.85;2.35;;;12.80;99.90;;;;;;4992243;28;20059;-46
2023/11/02 10:28:46;;;;;;;1.58;0.70;;;12.80;99.90;;;;;;4991200;28;20030;-49
2023/11/02 10:31:11;;;;;;;1.23;0.75;;;12.80;99.90;;;;;;4991903;28;20022;-49
2023/11/02 10:33:37;;;;;;;1.25;1.15;;;12.80;99.90;;;;;;5000931;28;20026;-47
2023/11/02 10:36:05;;;;;;;2.55;1.05;;;12.80;99.90;;;;;;4990502;28;20092;-50
2023/11/02 10:38:31;;;;;;;3.35;1.00;;;12.80;99.90;;;;;;4989757;28;20018;-47
2023/11/02 10:40:58;;;;;;;2.25;1.10;;;12.80;99.90;;;;;;4990445;28;20052;-48
2023/11/02 10:43:26;;;;;;;2.25;0.90;;;12.80;99.90;;;;;;4992403;28;20033;-46
2023/11/02 10:45:52;;;;;;;3.60;0.88;;;12.70;99.90;;;;;;4991826;28;20026;-47
2023/11/02 10:48:19;;;;;;;2.10;1.23;;;12.70;99.90;;;;;;4990851;28;20031;-48
2023/11/02 10:50:46;;;;;;;2.55;0.98;;;12.70;99.90;;;;;;4990297;28;20390;-51
2023/11/02 10:53:20;;;;;;;2.45;1.15;;;12.60;99.90;;;;;;4990978;28;20106;-49
2023/11/02 10:55:48;;;;;;;2.38;1.15;;;12.70;99.90;;;;;;4989366;28;20161;-48
2023/11/02 10:58:14;;;;;;;1.35;1.08;;;12.60;99.90;;;;;;4990209;28;20037;-50
2023/11/02 11:00:41;;;;;;;1.75;0.98;;;12.60;99.90;;;;;;4991566;28;20033;-45
2023/11/02 11:03:09;;;;;;;1.17;1.08;;;12.60;99.90;;;;;;4991231;28;20034;-49
2023/11/02 11:05:36;;;;;;;3.92;1.23;;;12.60;99.90;;;;;;4991907;28;20031;-47
2023/11/02 11:08:04;;;;;;;11.43;6.75;;;12.60;99.90;;;;;;4991227;28;20030;-47
2023/11/02 11:10:30;;;;;;;1.95;1.20;;;12.60;99.90;;;;;;4991794;28;20018;-48
2023/11/02 11:12:55;;;;;;;45.97;25.83;;;12.60;99.90;;;;;;4991771;28;20395;-47
2023/11/02 11:15:23;;;;;;;1.20;0.98;;;12.60;99.90;;;;;;4991978;28;20545;-50
2023/11/02 11:17:49;;;;;;;1.48;1.00;;;12.60;99.90;;;;;;4990794;28;20493;-49
2023/11/02 11:20:17;;;;;;;1.52;1.35;;;12.60;99.90;;;;;;4991830;28;20027;-47
2023/11/02 11:22:48;;;;;;;2.47;1.15;;;12.60;99.90;;;;;;4992726;28;20382;-48
2023/11/02 11:25:14;;;;;;;1.15;1.10;;;12.50;99.90;;;;;;4991239;28;20466;-48
2023/11/02 11:27:40;;;;;;;1.45;0.98;;;12.50;99.90;;;;;;4985091;28;20041;-47
2023/11/02 11:30:31;;;;;;;5.85;1.25;;;12.60;99.90;;;;;;4989867;28;20026;-48
2023/11/02 11:33:01;;;;;;;0.73;0.70;;;12.50;99.90;;;;;;4989788;28;20132;-50
2023/11/02 11:35:26;;;;;;;1.35;0.75;;;12.60;99.90;;;;;;4998071;23;20045;-44
2023/11/02 11:37:57;;;;;;;0.80;0.80;;;12.50;99.90;;;;;;4964577;28;20109;-49
2023/11/02 11:40:29;;;;;;;3.17;1.27;;;12.60;99.90;;;;;;4977332;28;20021;-47
2023/11/02 11:43:01;;;;;;;4.88;1.05;;;12.50;99.90;;;;;;4979076;28;20038;-49
2023/11/02 11:45:46;;;;;;;0.93;0.75;;;12.60;99.90;;;;;;4973319;28;20015;-48
2023/11/02 11:48:35;;;;;;;3.93;1.13;;;12.60;99.90;;;;;;4972403;28;20100;-49
2023/11/02 11:51:03;;;;;;;4.60;1.00;;;12.60;99.90;;;;;;4971474;28;20054;-49
2023/11/02 11:53:28;;;;;;;3.13;0.88;;;12.60;99.90;;;;;;4965971;28;20035;-42
2023/11/02 11:55:56;;;;;;;1.80;1.13;;;12.50;99.90;;;;;;4973129;28;20504;-48
2023/11/02 11:58:43;;;;;;;3.58;1.08;;;12.60;99.90;;;;;;4977222;28;20029;-45
2023/11/02 12:01:17;;;;;;;1.75;0.98;;;12.60;99.90;;;;;;4980154;28;20019;-46
2023/11/02 12:03:44;;;;;;;1.77;1.05;;;12.70;99.90;;;;;;4971487;28;20122;-48
2023/11/02 12:06:12;;;;;;;1.40;1.00;;;12.70;99.90;;;;;;4958251;28;20063;-48
2023/11/02 12:08:48;;;;;;;0.77;0.70;;;12.70;99.90;;;;;;4954660;29;20111;-47
2023/11/02 12:11:25;;;;;;;2.50;0.88;;;12.80;99.90;;;;;;4956345;28;20028;-48
2023/11/02 12:13:52;;;;;;;3.55;1.23;;;12.80;99.90;;;;;;4957844;28;20058;-49
2023/11/02 12:16:20;;;;;;;3.63;1.88;;;12.80;99.90;;;;;;4973006;28;20019;-47
2023/11/02 12:18:49;;;;;;;3.97;0.70;;;12.80;99.90;;;;;;4971471;28;20034;-48
2023/11/02 12:21:19;;;;;;;1.40;0.90;;;12.80;99.90;;;;;;4974008;28;20023;-50
2023/11/02 12:23:45;;;;;;;11.20;3.53;;;12.80;99.90;;;;;;4973340;28;20157;-47
2023/11/02 12:26:11;;;;;;;5.20;3.22;;;12.80;99.90;;;;;;4971262;28;20035;-46
2023/11/02 12:28:51;;;;;;;2.90;1.38;;;12.80;99.90;;;;;;4971632;28;20482;-48
2023/11/02 12:31:34;;;;;;;2.70;1.00;;;12.90;99.90;;;;;;4954226;28;20035;-47
2023/11/02 12:34:02;;;;;;;4.78;0.93;;;12.90;99.90;;;;;;4957162;28;20418;-47
2023/11/02 12:36:27;;;;;;;2.45;1.05;;;12.90;99.90;;;;;;4972627;28;20035;-46
2023/11/02 12:38:55;;;;;;;1.40;0.88;;;12.90;99.90;;;;;;4973223;28;20536;-47
2023/11/02 12:41:31;;;;;;;1.65;0.95;;;12.90;99.90;;;;;;4971988;28;20023;-46
2023/11/02 12:44:10;;;;;;;3.58;0.70;;;12.90;99.90;;;;;;4971139;28;20049;-49
2023/11/02 12:46:40;;;;;;;5.35;0.88;;;12.90;99.90;;;;;;4971182;28;20031;-45
2023/11/02 12:49:26;;;;;;;2.40;0.77;;;12.90;99.90;;;;;;4970325;28;20039;-48
2023/11/02 12:52:01;;;;;;;1.27;0.57;;;12.90;99.90;;;;;;4970784;28;20035;-47
2023/11/02 12:54:28;;;;;;;1.47;1.00;;;12.90;99.90;;;;;;4969540;28;20394;-46
2023/11/02 12:56:58;;;;;;;2.58;0.85;;;12.90;99.90;;;;;;4969810;28;20073;-50
2023/11/02 12:59:23;;;;;;;0.70;0.70;;;12.90;99.90;;;;;;4970360;28;20042;-46
2023/11/02 13:05:17;;;;;;;1.30;0.70;;;12.90;99.90;;;;;;4969132;28;20083;-46